createdAt,value
2022-11-09T00:02:01.953Z,99249.16
2022-11-09T00:04:31.829Z,99241.13
2022-11-09T00:07:09.011Z,99252.00
2022-11-09T00:09:38.179Z,99252.78
2022-11-09T00:12:07.757Z,99248.28
2022-11-09T00:14:36.916Z,99256.84
2022-11-09T00:17:05.472Z,99255.25
2022-11-09T00:19:35.939Z,99265.00
2022-11-09T00:22:04.414Z,99256.69
2022-11-09T00:24:32.977Z,99256.25
2022-11-09T00:27:01.489Z,99256.66
2022-11-09T00:29:30.684Z,99269.34
2022-11-09T00:32:01.653Z,99258.66
2022-11-09T00:34:30.179Z,99265.91
2022-11-09T00:37:03.399Z,99258.00
2022-11-09T00:39:31.893Z,99258.19
2022-11-09T00:42:00.386Z,99256.56
2022-11-09T00:44:31.748Z,99260.50
2022-11-09T00:47:00.342Z,99264.97
2022-11-09T00:49:28.781Z,99264.00
2022-11-09T00:51:57.384Z,99256.03
2022-11-09T00:54:27.300Z,99263.66
2022-11-09T00:56:55.977Z,99263.19
2022-11-09T00:59:24.522Z,99264.88
2022-11-09T01:01:53.031Z,99263.84
2022-11-09T01:04:21.923Z,99262.00
2022-11-09T01:06:50.513Z,99266.50
2022-11-09T01:09:18.894Z,99269.56
2022-11-09T01:11:48.826Z,99271.63
2022-11-09T01:14:17.420Z,99265.81
2022-11-09T01:16:45.941Z,99272.75
2022-11-09T01:19:14.456Z,99274.03
2022-11-09T01:21:42.967Z,99270.25
2022-11-09T01:24:11.918Z,99264.19
2022-11-09T01:26:40.122Z,99265.22
2022-11-09T01:29:09.902Z,99268.56
2022-11-09T01:31:38.363Z,99266.44
2022-11-09T01:34:06.850Z,99271.63
2022-11-09T01:36:35.276Z,99274.72
2022-11-09T01:39:03.805Z,99273.00
2022-11-09T01:41:32.243Z,99274.03
2022-11-09T01:44:11.496Z,99273.44
2022-11-09T01:46:49.419Z,99276.09
2022-11-09T01:49:29.996Z,99279.34
2022-11-09T01:52:02.037Z,99283.22
2022-11-09T01:54:38.379Z,99281.38
2022-11-09T01:57:11.723Z,99287.81
2022-11-09T01:59:47.184Z,99291.78
2022-11-09T02:02:16.690Z,99287.28
2022-11-09T02:04:51.499Z,99286.97
2022-11-09T02:07:22.027Z,99296.00
2022-11-09T02:09:56.312Z,99282.19
2022-11-09T02:12:29.527Z,99291.94
2022-11-09T02:15:02.280Z,99279.63
2022-11-09T02:17:33.121Z,99291.25
2022-11-09T02:20:02.548Z,99292.19
2022-11-09T02:22:34.700Z,99290.19
2022-11-09T02:25:04.235Z,99294.09
2022-11-09T02:27:33.372Z,99294.91
2022-11-09T02:30:03.937Z,99295.09
2022-11-09T02:32:33.434Z,99301.25
2022-11-09T02:35:03.951Z,99295.09
2022-11-09T02:37:37.142Z,99297.69
2022-11-09T02:40:12.329Z,99306.06
2022-11-09T02:42:41.332Z,99281.81
2022-11-09T02:45:11.362Z,99296.88
2022-11-09T02:47:41.944Z,99303.88
2022-11-09T02:50:11.546Z,99294.03
2022-11-09T02:52:41.480Z,99296.38
2022-11-09T02:55:10.937Z,99301.94
2022-11-09T02:57:40.786Z,99301.44
2022-11-09T03:00:11.392Z,99299.78
2022-11-09T03:02:40.257Z,99299.91
2022-11-09T03:05:09.719Z,99297.28
2022-11-09T03:07:43.304Z,99296.50
2022-11-09T03:10:13.146Z,99294.41
2022-11-09T03:12:42.891Z,99289.81
2022-11-09T03:15:15.138Z,99306.38
2022-11-09T03:17:47.710Z,99309.25
2022-11-09T03:20:17.419Z,99306.25
2022-11-09T03:22:47.336Z,99305.41
2022-11-09T03:25:16.266Z,99301.06
2022-11-09T03:27:44.822Z,99303.16
2022-11-09T03:30:14.879Z,99305.88
2022-11-09T03:32:48.011Z,99306.25
2022-11-09T03:35:19.064Z,99312.47
2022-11-09T03:37:49.132Z,99305.94
2022-11-09T03:40:18.727Z,99316.72
2022-11-09T03:42:50.268Z,99305.75
2022-11-09T03:45:18.932Z,99315.03
2022-11-09T03:47:48.516Z,99305.94
2022-11-09T03:50:18.576Z,99306.44
2022-11-09T03:52:49.383Z,99309.88
2022-11-09T03:55:17.944Z,99318.97
2022-11-09T03:57:47.251Z,99322.75
2022-11-09T04:00:18.637Z,99319.41
2022-11-09T04:02:47.482Z,99319.75
2022-11-09T04:05:16.656Z,99322.00
2022-11-09T04:07:50.852Z,99315.16
2022-11-09T04:10:20.131Z,99329.88
2022-11-09T04:12:48.823Z,99320.16
2022-11-09T04:15:17.775Z,99318.56
2022-11-09T04:17:46.555Z,99315.34
2022-11-09T04:20:15.161Z,99324.31
2022-11-09T04:22:43.617Z,99324.13
2022-11-09T04:25:13.510Z,99314.28
2022-11-09T04:27:42.028Z,99321.38
2022-11-09T04:30:14.056Z,99318.28
2022-11-09T04:32:42.579Z,99320.41
2022-11-09T04:35:11.257Z,99320.75
2022-11-09T04:37:39.708Z,99326.38
2022-11-09T04:40:09.222Z,99339.34
2022-11-09T04:42:39.125Z,99336.31
2022-11-09T04:45:08.552Z,99341.19
2022-11-09T04:47:37.024Z,99338.59
2022-11-09T04:50:06.005Z,99341.06
2022-11-09T04:52:34.461Z,99342.53
2022-11-09T04:55:03.153Z,99343.34
2022-11-09T04:57:32.262Z,99345.25
2022-11-09T05:00:02.066Z,99349.31
2022-11-09T05:02:33.724Z,99344.94
2022-11-09T05:05:02.218Z,99349.69
2022-11-09T05:07:32.520Z,99339.88
2022-11-09T05:10:01.076Z,99341.53
2022-11-09T05:12:29.747Z,99346.31
2022-11-09T05:14:58.243Z,99340.25
2022-11-09T05:17:28.175Z,99343.97
2022-11-09T05:19:56.623Z,99346.91
2022-11-09T05:22:42.477Z,99345.56
2022-11-09T05:25:11.606Z,99347.06
2022-11-09T05:27:42.395Z,99360.03
2022-11-09T05:30:11.786Z,99366.22
2022-11-09T05:32:41.858Z,99368.53
2022-11-09T05:35:10.867Z,99378.81
2022-11-09T05:37:40.004Z,99375.63
2022-11-09T05:40:10.723Z,99368.00
2022-11-09T05:42:40.926Z,99373.81
2022-11-09T05:45:40.379Z,99367.88
2022-11-09T05:48:00.988Z,99374.19
2022-11-09T05:50:29.511Z,99370.22
2022-11-09T05:53:12.150Z,99374.81
2022-11-09T05:55:41.322Z,99374.38
2022-11-09T05:58:09.891Z,99369.38
2022-11-09T06:00:38.834Z,99355.16
2022-11-09T06:03:12.017Z,99358.78
2022-11-09T06:05:42.454Z,99355.00
2022-11-09T06:08:13.208Z,99367.56
2022-11-09T06:10:42.314Z,99364.69
2022-11-09T06:13:10.893Z,99369.38
2022-11-09T06:15:39.354Z,99379.53
2022-11-09T06:18:09.275Z,99383.16
2022-11-09T06:20:37.764Z,99376.47
2022-11-09T06:23:06.223Z,99373.06
2022-11-09T06:25:36.095Z,99376.84
2022-11-09T06:28:04.737Z,99376.16
2022-11-09T06:30:33.124Z,99386.47
2022-11-09T06:33:01.939Z,99381.16
2022-11-09T06:35:31.647Z,99383.19
2022-11-09T06:38:01.605Z,99384.09
2022-11-09T06:40:30.663Z,99386.09
2022-11-09T06:42:59.894Z,99383.28
2022-11-09T06:45:34.111Z,99396.88
2022-11-09T06:48:04.396Z,99384.13
2022-11-09T06:50:35.426Z,99397.03
2022-11-09T06:53:08.996Z,99395.06
2022-11-09T06:55:45.711Z,99406.19
2022-11-09T06:58:18.263Z,99402.56
2022-11-09T07:00:47.484Z,99391.88
2022-11-09T07:03:17.540Z,99415.41
2022-11-09T07:05:52.103Z,99416.13
2022-11-09T07:08:23.079Z,99410.28
2022-11-09T07:10:51.739Z,99421.81
2022-11-09T07:13:20.767Z,99415.38
2022-11-09T07:16:03.243Z,99424.72
2022-11-09T07:18:32.422Z,99419.53
2022-11-09T07:21:14.313Z,99416.03
2022-11-09T07:23:49.358Z,99423.34
2022-11-09T07:26:19.964Z,99431.75
2022-11-09T07:28:51.046Z,99431.81
2022-11-09T07:31:31.551Z,99418.91
2022-11-09T07:34:10.925Z,99401.00
2022-11-09T07:36:49.080Z,99412.16
2022-11-09T07:39:17.730Z,99421.38
2022-11-09T07:41:48.569Z,99435.31
2022-11-09T07:44:18.525Z,99435.97
2022-11-09T07:46:48.854Z,99433.38
2022-11-09T07:49:18.055Z,99431.75
2022-11-09T07:51:48.181Z,99433.84
2022-11-09T07:54:16.776Z,99429.53
2022-11-09T07:56:45.329Z,99437.34
2022-11-09T07:59:14.496Z,99427.34
2022-11-09T08:01:43.165Z,99425.41
2022-11-09T08:04:11.783Z,99429.25
2022-11-09T08:06:40.421Z,99436.56
2022-11-09T08:09:10.537Z,99418.66
2022-11-09T08:11:39.065Z,99429.84
2022-11-09T08:14:07.495Z,99437.41
2022-11-09T08:16:37.867Z,99433.56
2022-11-09T08:19:09.112Z,99435.88
2022-11-09T08:21:38.112Z,99431.94
2022-11-09T08:24:06.993Z,99437.06
2022-11-09T08:26:41.478Z,99446.44
2022-11-09T08:29:09.990Z,99419.09
2022-11-09T08:31:41.760Z,99441.66
2022-11-09T08:34:14.119Z,99441.88
2022-11-09T08:36:42.852Z,99446.50
2022-11-09T08:39:11.436Z,99439.69
2022-11-09T08:41:41.403Z,99439.00
2022-11-09T08:44:09.992Z,99436.84
2022-11-09T08:46:41.299Z,99435.59
2022-11-09T08:49:10.330Z,99425.06
2022-11-09T08:51:38.856Z,99434.69
2022-11-09T08:54:11.602Z,99440.72
2022-11-09T08:56:41.537Z,99436.75
2022-11-09T08:59:10.044Z,99424.31
2022-11-09T09:01:38.785Z,99426.59
2022-11-09T09:04:07.528Z,99421.91
2022-11-09T09:06:36.042Z,99426.25
2022-11-09T09:09:04.784Z,99430.03
2022-11-09T09:11:33.477Z,99430.81
2022-11-09T09:14:03.436Z,99426.25
2022-11-09T09:16:32.080Z,99435.75
2022-11-09T09:19:00.668Z,99436.50
2022-11-09T09:21:29.453Z,99429.81
2022-11-09T09:23:58.375Z,99432.72
2022-11-09T09:26:29.847Z,99431.22
2022-11-09T09:28:58.856Z,99429.75
2022-11-09T09:31:29.298Z,99438.06
2022-11-09T09:33:58.001Z,99434.69
2022-11-09T09:36:26.666Z,99437.28
2022-11-09T09:38:55.785Z,99425.00
2022-11-09T09:41:41.831Z,99443.25
2022-11-09T09:44:21.942Z,99446.22
2022-11-09T09:46:57.824Z,99438.78
2022-11-09T09:49:30.106Z,99440.09
2022-11-09T09:52:05.152Z,99449.88
2022-11-09T09:54:40.764Z,99437.34
2022-11-09T09:57:18.578Z,99445.22
2022-11-09T09:59:50.996Z,99436.75
2022-11-09T10:02:26.412Z,99438.06
2022-11-09T10:04:57.403Z,99441.66
2022-11-09T10:07:31.179Z,99436.09
2022-11-09T10:10:33.695Z,99434.63
2022-11-09T10:13:40.655Z,99450.63
2022-11-09T10:16:20.063Z,99449.59
2022-11-09T10:19:12.549Z,99443.78
2022-11-09T10:21:49.693Z,99436.81
2022-11-09T10:24:28.651Z,99442.13
2022-11-09T10:26:59.023Z,99449.44
2022-11-09T10:29:30.128Z,99448.72
2022-11-09T10:32:11.140Z,99446.59
2022-11-09T10:34:50.524Z,99438.91
2022-11-09T10:37:23.317Z,99443.59
2022-11-09T10:39:57.852Z,99434.88
2022-11-09T10:42:47.597Z,99447.91
2022-11-09T10:45:37.546Z,99439.72
2022-11-09T10:48:34.419Z,99445.66
2022-11-09T10:51:39.727Z,99437.00
2022-11-09T10:54:29.127Z,99444.06
2022-11-09T10:57:21.351Z,99452.00
2022-11-09T11:00:17.670Z,99453.06
2022-11-09T11:03:23.105Z,99445.31
2022-11-09T11:06:17.594Z,99448.69
2022-11-09T11:09:22.222Z,99449.03
2022-11-09T11:12:17.223Z,99448.91
2022-11-09T11:15:16.021Z,99450.25
2022-11-09T11:18:05.611Z,99457.19
2022-11-09T11:21:17.444Z,99446.91
2022-11-09T11:24:15.213Z,99456.38
2022-11-09T11:27:10.467Z,99443.72
2022-11-09T11:30:05.662Z,99446.06
2022-11-09T11:32:52.701Z,99446.94
2022-11-09T11:35:45.147Z,99447.22
2022-11-09T11:38:38.539Z,99446.88
2022-11-09T11:41:51.668Z,99454.63
2022-11-09T11:45:12.432Z,99447.44
2022-11-09T11:48:16.109Z,99440.44
2022-11-09T11:51:11.161Z,99436.16
2022-11-09T11:54:14.151Z,99450.25
2022-11-09T11:57:09.398Z,99441.91
2022-11-09T12:00:11.118Z,99416.59
2022-11-09T12:03:36.247Z,99449.16
2022-11-09T12:06:45.083Z,99449.69
2022-11-09T12:10:05.126Z,99446.56
2022-11-09T12:13:05.948Z,99453.19
2022-11-09T12:16:04.572Z,99447.91
2022-11-09T12:19:13.808Z,99447.25
2022-11-09T12:22:08.347Z,99422.88
2022-11-09T12:25:04.407Z,99447.38
2022-11-09T12:28:28.069Z,99450.81
2022-11-09T12:31:32.602Z,99448.97
2022-11-09T12:34:53.823Z,99451.28
2022-11-09T12:37:51.583Z,99458.88
2022-11-09T12:40:46.154Z,99456.47
2022-11-09T12:43:43.211Z,99464.34
2022-11-09T12:46:39.058Z,99454.84
2022-11-09T12:49:41.468Z,99462.53
2022-11-09T12:52:31.308Z,99457.50
2022-11-09T12:55:25.653Z,99455.47
2022-11-09T12:58:26.473Z,99457.19
2022-11-09T13:01:35.299Z,99467.84
2022-11-09T13:04:25.590Z,99468.22
2022-11-09T13:07:32.017Z,99466.13
2022-11-09T13:10:32.969Z,99462.63
2022-11-09T13:13:28.417Z,99464.34
2022-11-09T13:16:45.325Z,99442.59
2022-11-09T13:19:56.558Z,99468.66
2022-11-09T13:23:01.438Z,99473.72
2022-11-09T13:25:53.239Z,99475.91
2022-11-09T13:28:44.796Z,99475.53
2022-11-09T13:32:06.466Z,99475.72
2022-11-09T13:34:56.911Z,99475.75
2022-11-09T13:37:55.192Z,99482.59
2022-11-09T13:40:45.116Z,99480.22
2022-11-09T13:43:34.322Z,99480.69
2022-11-09T13:46:27.828Z,99479.59
2022-11-09T13:49:47.840Z,99486.44
2022-11-09T13:52:55.230Z,99482.03
2022-11-09T13:55:45.923Z,99474.78
2022-11-09T13:58:47.089Z,99469.94
2022-11-09T14:01:50.132Z,99482.84
2022-11-09T14:04:39.660Z,99482.94
2022-11-09T14:07:29.592Z,99476.28
2022-11-09T14:10:35.958Z,99485.91
2022-11-09T14:13:43.496Z,99478.97
2022-11-09T14:16:41.792Z,99479.44
2022-11-09T14:19:39.893Z,99481.59
2022-11-09T14:22:29.971Z,99489.16
2022-11-09T14:25:22.280Z,99498.00
2022-11-09T14:28:37.649Z,99493.53
2022-11-09T14:31:26.737Z,99492.28
2022-11-09T14:34:17.212Z,99494.06
2022-11-09T14:37:07.732Z,99491.50
2022-11-09T14:39:54.954Z,99489.66
2022-11-09T14:42:48.971Z,99486.91
2022-11-09T14:45:36.519Z,99498.28
2022-11-09T14:48:25.221Z,99481.78
2022-11-09T14:51:14.847Z,99475.75
2022-11-09T15:01:24.127Z,99459.81
2022-11-09T15:04:13.978Z,99477.88
2022-11-09T15:07:05.919Z,99484.03
2022-11-09T15:09:56.680Z,99483.78
2022-11-09T15:13:02.515Z,99489.59
2022-11-09T15:15:56.980Z,99486.09
2022-11-09T15:18:48.821Z,99486.88
2022-11-09T15:21:42.264Z,99474.34
2022-11-09T15:24:46.364Z,99462.31
2022-11-09T15:27:39.284Z,99478.13
2022-11-09T15:30:55.963Z,99498.34
2022-11-09T15:33:55.465Z,99489.84
2022-11-09T15:36:46.136Z,99496.63
2022-11-09T15:39:36.283Z,99504.41
2022-11-09T15:42:27.592Z,99496.66
2022-11-09T15:45:17.372Z,99496.91
2022-11-09T15:48:24.859Z,99491.03
2022-11-09T15:51:17.421Z,99494.50
2022-11-09T15:54:07.321Z,99490.88
2022-11-09T15:56:54.916Z,99486.09
2022-11-09T15:59:42.461Z,99484.41
2022-11-09T16:02:32.768Z,99490.31
2022-11-09T16:05:22.668Z,99479.41
2022-11-09T16:08:13.216Z,99477.88
2022-11-09T16:11:07.989Z,99481.59
2022-11-09T16:14:05.465Z,99471.88
2022-11-09T16:16:53.391Z,99468.56
2022-11-09T16:19:43.330Z,99481.03
2022-11-09T16:22:33.062Z,99479.78
2022-11-09T16:25:22.995Z,99479.38
2022-11-09T16:28:12.371Z,99480.06
2022-11-09T16:31:02.160Z,99480.31
2022-11-09T16:33:49.346Z,99483.69
2022-11-09T16:36:38.914Z,99482.00
2022-11-09T16:39:29.183Z,99478.94
2022-11-09T16:42:20.014Z,99478.84
2022-11-09T16:45:10.628Z,99464.97
2022-11-09T16:47:58.590Z,99477.94
2022-11-09T16:50:53.148Z,99484.81
2022-11-09T16:53:40.204Z,99477.53
2022-11-09T16:56:27.345Z,99488.66
2022-11-09T16:59:18.923Z,99484.84
2022-11-09T17:02:07.734Z,99476.81
2022-11-09T17:04:55.378Z,99476.69
2022-11-09T17:07:45.925Z,99472.00
2022-11-09T17:10:33.053Z,99481.44
2022-11-09T17:13:20.427Z,99486.09
2022-11-09T17:16:14.468Z,99485.09
2022-11-09T17:19:09.376Z,99502.56
2022-11-09T17:21:58.934Z,99490.56
2022-11-09T17:24:47.036Z,99489.31
2022-11-09T17:27:34.410Z,99488.97
2022-11-09T17:30:24.600Z,99487.78
2022-11-09T17:33:13.482Z,99487.88
2022-11-09T17:36:01.327Z,99488.19
2022-11-09T17:38:48.550Z,99492.97
2022-11-09T17:41:41.359Z,99492.13
2022-11-09T17:44:30.071Z,99488.09
2022-11-09T17:47:21.024Z,99481.13
2022-11-09T17:50:12.544Z,99482.34
2022-11-09T17:53:00.414Z,99491.69
2022-11-09T17:55:53.266Z,99488.69
2022-11-09T17:58:41.715Z,99494.63
2022-11-09T18:01:41.268Z,99501.66
2022-11-09T18:04:32.644Z,99496.91
2022-11-09T18:07:24.284Z,99501.50
2022-11-09T18:10:19.833Z,99510.28
2022-11-09T18:13:08.649Z,99507.41
2022-11-09T18:15:55.916Z,99507.06
2022-11-09T18:18:45.018Z,99495.97
2022-11-09T18:21:39.644Z,99496.69
2022-11-09T18:24:28.230Z,99503.06
2022-11-09T18:27:15.262Z,99500.41
2022-11-09T18:30:08.447Z,99511.56
2022-11-09T18:32:58.367Z,99486.94
2022-11-09T18:35:45.453Z,99511.31
2022-11-09T18:38:36.447Z,99496.19
2022-11-09T18:41:26.783Z,99503.06
2022-11-09T18:44:15.428Z,99498.81
2022-11-09T18:47:05.594Z,99516.06
2022-11-09T18:49:53.603Z,99515.78
2022-11-09T18:52:41.000Z,99516.69
2022-11-09T18:58:46.225Z,99493.16
2022-11-09T19:01:33.810Z,99509.59
2022-11-09T19:04:21.166Z,99510.41
2022-11-09T19:07:10.352Z,99505.56
2022-11-09T19:09:57.747Z,99459.91
2022-11-09T19:12:44.999Z,99503.09
2022-11-09T19:15:35.637Z,99498.59
2022-11-09T19:18:24.638Z,99506.13
2022-11-09T19:21:34.316Z,99507.91
2022-11-09T19:24:23.520Z,99514.81
2022-11-09T19:27:12.155Z,99499.00
2022-11-09T19:30:00.764Z,99506.34
2022-11-09T19:32:53.096Z,99510.50
2022-11-09T19:35:40.484Z,99508.50
2022-11-09T19:38:30.917Z,99511.09
2022-11-09T19:41:20.365Z,99513.75
2022-11-09T19:44:12.901Z,99527.63
2022-11-09T19:47:00.405Z,99532.94
2022-11-09T19:49:48.890Z,99531.00
2022-11-09T19:52:37.738Z,99531.75
2022-11-09T19:55:26.156Z,99535.06
2022-11-09T19:58:13.295Z,99517.97
2022-11-09T20:01:05.164Z,99521.63
2022-11-09T20:03:53.219Z,99523.78
2022-11-09T20:06:42.363Z,99525.50
2022-11-09T20:09:32.108Z,99532.69
2022-11-09T20:12:35.666Z,99524.91
2022-11-09T20:15:23.181Z,99524.50
2022-11-09T20:18:10.482Z,99517.81
2022-11-09T20:20:57.617Z,99521.66
2022-11-09T20:23:46.123Z,99527.69
2022-11-09T20:26:33.870Z,99519.63
2022-11-09T20:29:21.037Z,99533.75
2022-11-09T20:32:12.060Z,99538.13
2022-11-09T20:35:00.453Z,99531.22
2022-11-09T20:37:47.478Z,99536.41
2022-11-09T20:40:39.056Z,99541.63
2022-11-09T20:43:26.841Z,99532.22
2022-11-09T20:46:18.306Z,99531.69
2022-11-09T20:49:05.847Z,99531.28
2022-11-09T20:51:53.305Z,99530.94
2022-11-09T20:54:40.621Z,99533.41
2022-11-09T20:57:29.674Z,99527.63
2022-11-09T21:00:21.695Z,99518.75
2022-11-09T21:03:11.380Z,99519.63
2022-11-09T21:05:59.620Z,99519.84
2022-11-09T21:08:47.060Z,99508.81
2022-11-09T21:11:37.075Z,99525.22
2022-11-09T21:14:25.674Z,99524.34
2022-11-09T21:17:12.824Z,99530.75
2022-11-09T21:20:00.676Z,99526.81
2022-11-09T21:23:01.458Z,99528.78
2022-11-09T21:26:06.190Z,99536.34
2022-11-09T21:29:10.938Z,99538.38
2022-11-09T21:31:59.955Z,99531.22
2022-11-09T21:34:47.293Z,99536.47
2022-11-09T21:37:36.089Z,99543.63
2022-11-09T21:40:24.943Z,99544.13
2022-11-09T21:43:12.557Z,99543.69
2022-11-09T21:45:59.383Z,99541.16
2022-11-09T21:48:48.184Z,99545.13
2022-11-09T21:51:36.106Z,99543.56
2022-11-09T21:54:23.800Z,99534.19
2022-11-09T21:57:10.791Z,99552.75
2022-11-09T21:59:58.349Z,99549.44
2022-11-09T22:02:45.652Z,99553.28
2022-11-09T22:05:36.901Z,99533.25
2022-11-09T22:08:24.147Z,99546.63
2022-11-09T22:11:13.011Z,99549.09
2022-11-09T22:14:17.829Z,99557.91
2022-11-09T22:17:13.331Z,99544.19
2022-11-09T22:20:17.924Z,99562.00
2022-11-09T22:23:08.571Z,99554.31
2022-11-09T22:25:55.621Z,99561.50
2022-11-09T22:28:42.945Z,99554.06
2022-11-09T22:31:30.033Z,99561.19
2022-11-09T22:34:20.219Z,99566.75
2022-11-09T22:37:07.599Z,99562.78
2022-11-09T22:39:56.385Z,99563.50
2022-11-09T22:42:43.470Z,99556.97
2022-11-09T22:45:30.708Z,99558.84
2022-11-09T22:48:18.068Z,99560.38
2022-11-09T22:51:06.165Z,99567.66
2022-11-09T22:53:53.412Z,99574.94
2022-11-09T22:56:42.490Z,99578.63
2022-11-09T22:59:29.326Z,99577.47
2022-11-09T23:02:16.362Z,99575.88
2022-11-09T23:05:03.372Z,99569.22
2022-11-09T23:07:50.686Z,99570.94
2022-11-09T23:10:38.358Z,99560.44
2022-11-09T23:13:27.249Z,99570.34
2022-11-09T23:16:14.111Z,99562.59
2022-11-09T23:19:00.483Z,99568.50
2022-11-09T23:21:47.525Z,99553.94
2022-11-09T23:24:52.024Z,99556.97
2022-11-09T23:27:39.453Z,99556.50
2022-11-09T23:30:28.205Z,99563.38
2022-11-09T23:33:15.120Z,99557.34
2022-11-09T23:36:03.276Z,99554.88
2022-11-09T23:38:50.315Z,99548.44
2022-11-09T23:41:37.302Z,99554.09
2022-11-09T23:44:26.225Z,99557.31
2022-11-09T23:47:14.942Z,99562.25
2022-11-09T23:50:02.027Z,99563.78
2022-11-09T23:52:49.317Z,99571.38
2022-11-09T23:55:36.400Z,99570.28
2022-11-09T23:58:23.527Z,99576.78
